Time;durP1;ratioP1;P1;durP2;ratioP2;P2;SDS_P1;SDS_P2;PMS_P1;PMS_P2;Temp;Humidity;BMP_temperature;BMP_pressure;BME280_temperature;BME280_humidity;BME280_pressure;Samples;Min_cycle;Max_cycle;Signal;HPM_P1;HPM_P2
2022/08/21 00:00:11;;;;;;;18.77;13.25;;;;;;;18.43;96.43;100430.36;1736476;80;26112;-60
2022/08/21 00:02:37;;;;;;;21.68;14.23;;;;;;;18.37;96.58;100428.62;1739655;81;99035;-61
2022/08/21 00:05:04;;;;;;;21.10;13.80;;;;;;;18.29;96.49;100425.65;1747242;81;25845;-61
2022/08/21 00:07:32;;;;;;;19.37;12.88;;;;;;;18.27;96.43;100420.34;1730410;81;99211;-60
2022/08/21 00:09:58;;;;;;;20.12;12.98;;;;;;;18.10;96.24;100399.14;1743111;81;26114;-61
2022/08/21 00:12:25;;;;;;;17.70;12.95;;;;;;;18.20;96.30;100425.05;1734992;80;25735;-61
2022/08/21 00:14:51;;;;;;;23.75;14.50;;;;;;;18.16;96.23;100421.22;1745437;81;99066;-60
2022/08/21 00:17:17;;;;;;;19.57;13.53;;;;;;;18.11;96.19;100423.43;1736371;81;25962;-59
2022/08/21 00:19:42;;;;;;;20.27;13.80;;;;;;;18.06;96.46;100419.34;1740155;81;99220;-59
2022/08/21 00:22:09;;;;;;;21.60;13.80;;;;;;;18.00;96.37;100428.83;1728720;80;25736;-59
2022/08/21 00:24:34;;;;;;;21.82;12.95;;;;;;;17.98;96.31;100429.92;1731464;81;26405;-59
2022/08/21 00:27:00;;;;;;;16.23;12.35;;;;;;;17.95;96.25;100428.81;1731496;81;98970;-59
2022/08/21 00:29:26;;;;;;;26.97;14.55;;;;;;;17.92;96.24;100418.20;1715163;83;26003;-59
2022/08/21 00:31:53;;;;;;;19.40;13.18;;;;;;;17.91;96.18;100424.61;1735930;81;99135;-59
2022/08/21 00:34:19;;;;;;;21.25;13.55;;;;;;;17.89;96.24;100423.37;1737286;81;25818;-59
2022/08/21 00:36:45;;;;;;;18.85;12.70;;;;;;;17.89;96.21;100426.57;1740038;81;25892;-61
2022/08/21 00:39:11;;;;;;;17.27;13.70;;;;;;;17.87;96.15;100419.05;1734326;81;99132;-61
2022/08/21 00:41:38;;;;;;;23.35;13.75;;;;;;;17.87;96.11;100419.05;1730627;81;25799;-61
2022/08/21 00:44:08;;;;;;;18.80;13.10;;;;;;;17.85;96.19;100413.74;1742917;81;99184;-59
2022/08/21 00:46:35;;;;;;;19.75;13.45;;;;;;;17.86;96.32;100419.54;1740978;81;25642;-59
2022/08/21 00:49:01;;;;;;;25.23;13.43;;;;;;;17.84;96.35;100419.66;1740110;81;25773;-59
2022/08/21 00:51:47;;;;;;;21.80;12.43;;;;;;;17.83;96.44;100419.28;1738392;81;99166;-60
2022/08/21 00:54:14;;;;;;;17.37;12.63;;;;;;;17.83;96.75;100419.77;1736928;80;25865;-59
2022/08/21 00:56:40;;;;;;;25.23;13.62;;;;;;;17.81;96.78;100419.89;1739133;80;99058;-59
2022/08/21 00:59:07;;;;;;;16.12;10.90;;;;;;;17.81;96.72;100426.67;1739552;81;25885;-59
2022/08/21 01:01:33;;;;;;;21.35;12.85;;;;;;;17.82;97.05;100416.20;1734521;80;99182;-59
2022/08/21 01:04:00;;;;;;;17.82;12.65;;;;;;;17.80;96.86;100412.74;1739628;81;27392;-60
2022/08/21 01:06:25;;;;;;;16.05;12.15;;;;;;;17.81;96.74;100410.89;1733014;81;25730;-59
2022/08/21 01:08:51;;;;;;;23.60;12.47;;;;;;;17.82;96.90;100408.06;1741321;80;99157;-59
2022/08/21 01:11:18;;;;;;;22.60;12.55;;;;;;;17.82;96.74;100409.91;1748598;81;25718;-59
2022/08/21 01:13:45;;;;;;;24.90;13.60;;;;;;;17.82;96.66;100407.20;1738900;81;99182;-59
2022/08/21 01:16:14;;;;;;;22.85;13.03;;;;;;;17.81;96.66;100406.83;1745077;80;27374;-59
2022/08/21 01:18:40;;;;;;;22.45;13.60;;;;;;;17.80;96.93;100398.32;1743453;81;25668;-60
2022/08/21 01:21:10;;;;;;;17.95;13.00;;;;;;;17.79;96.96;100396.09;1737858;80;99062;-59
2022/08/21 01:23:41;;;;;;;20.15;13.32;;;;;;;17.77;96.90;100398.06;1728669;81;27254;-59
2022/08/21 01:26:08;;;;;;;17.57;12.73;;;;;;;17.75;96.97;100387.83;1737943;81;99100;-59
2022/08/21 01:28:51;;;;;;;25.48;13.60;;;;;;;17.76;97.09;100399.05;1731198;81;27394;-59
2022/08/21 01:31:21;;;;;;;21.82;15.23;;;;;;;17.76;97.05;100396.34;1732007;81;26509;-61
2022/08/21 01:33:47;;;;;;;22.82;15.68;;;;;;;17.77;97.06;100394.48;1735623;81;98934;-62
2022/08/21 01:36:13;;;;;;;24.10;16.55;;;;;;;17.77;97.10;100398.56;1740121;80;26305;-58
2022/08/21 01:38:39;;;;;;;26.37;16.62;;;;;;;17.77;97.11;100399.91;1735648;81;99138;-59
2022/08/21 01:41:05;;;;;;;29.80;18.82;;;;;;;17.76;97.20;100396.34;1744681;81;29528;-59
2022/08/21 01:43:30;;;;;;;28.30;16.73;;;;;;;17.77;97.40;100389.93;1736258;81;99151;-59
2022/08/21 01:45:57;;;;;;;27.30;16.40;;;;;;;17.78;97.31;100398.93;1738076;80;25788;-59
2022/08/21 01:48:23;;;;;;;28.38;16.00;;;;;;;17.77;97.48;100387.22;1736823;80;26935;-59
2022/08/21 01:50:49;;;;;;;31.80;16.70;;;;;;;17.77;97.38;100389.93;1735152;81;98989;-58
2022/08/21 01:53:15;;;;;;;26.35;16.35;;;;;;;17.78;97.39;100382.17;1706080;82;28071;-59
2022/08/21 01:55:43;;;;;;;25.40;16.30;;;;;;;17.76;97.40;100373.30;1737567;80;99281;-59
2022/08/21 01:58:10;;;;;;;23.90;16.00;;;;;;;17.76;97.45;100386.84;1738970;81;25799;-59
2022/08/21 02:00:35;;;;;;;27.13;17.10;;;;;;;17.75;97.73;100384.25;1747298;81;27484;-59
2022/08/21 02:03:01;;;;;;;21.25;15.20;;;;;;;17.74;97.83;100382.03;1737316;81;99103;-59
2022/08/21 02:05:27;;;;;;;19.25;14.15;;;;;;;17.78;98.21;100382.66;1731744;80;27386;-61
2022/08/21 02:07:55;;;;;;;22.30;15.90;;;;;;;17.76;98.03;100371.08;1742206;80;99244;-59
2022/08/21 02:10:26;;;;;;;32.85;15.45;;;;;;;17.76;98.27;100371.94;1739538;81;26027;-59
2022/08/21 02:12:53;;;;;;;24.35;15.55;;;;;;;17.74;98.15;100373.04;1734281;81;26223;-61
2022/08/21 02:15:20;;;;;;;22.90;15.35;;;;;;;17.74;98.08;100373.04;1764729;80;99002;-59
2022/08/21 02:17:51;;;;;;;21.00;14.53;;;;;;;17.73;98.02;100365.40;1765515;80;27449;-59
2022/08/21 02:20:26;;;;;;;;;;;;;;;17.73;97.88;100369.95;1770695;78;99049;-59
2022/08/21 02:22:53;;;;;;;22.07;14.70;;;;;;;17.72;97.75;100363.67;1715046;82;25806;-59
2022/08/21 02:25:22;;;;;;;26.45;14.90;;;;;;;17.68;97.84;100364.89;1712174;82;26104;-59
2022/08/21 02:27:49;;;;;;;19.73;14.38;;;;;;;17.67;97.90;100369.08;1710042;82;98919;-59
2022/08/21 02:30:22;;;;;;;19.07;14.75;;;;;;;17.64;97.99;100355.73;1717670;82;27465;-59
2022/08/21 02:32:48;;;;;;;21.20;13.20;;;;;;;17.63;98.06;100365.70;1713647;82;99402;-62
2022/08/21 02:35:14;;;;;;;16.45;11.83;;;;;;;17.59;98.24;100353.37;1720561;82;26706;-59
2022/08/21 02:37:51;;;;;;;18.55;12.47;;;;;;;17.58;98.51;100350.78;1711332;82;99403;-60
2022/08/21 02:40:22;;;;;;;16.75;12.15;;;;;;;17.53;98.73;100349.28;1710403;81;26438;-59
2022/08/21 02:42:48;;;;;;;19.42;11.93;;;;;;;17.47;98.66;100353.82;1715989;82;28082;-60
2022/08/21 02:45:15;;;;;;;15.83;11.90;;;;;;;17.44;98.69;100354.05;1707978;82;99186;-60
2022/08/21 02:47:55;;;;;;;16.95;11.68;;;;;;;17.42;98.72;100347.03;1711644;82;26314;-60
2022/08/21 02:50:26;;;;;;;19.17;12.07;;;;;;;17.41;98.76;100343.45;1710965;82;99255;-60
2022/08/21 02:52:54;;;;;;;15.68;11.10;;;;;;;17.36;98.77;100354.27;1714976;82;25811;-59
2022/08/21 02:55:22;;;;;;;14.03;10.20;;;;;;;17.32;99.09;100350.06;1707572;82;28214;-58
2022/08/21 02:57:48;;;;;;;15.88;10.58;;;;;;;17.29;99.05;100354.36;1708218;82;98854;-59
2022/08/21 03:00:16;;;;;;;14.40;10.75;;;;;;;17.28;99.25;100351.27;1705819;82;25854;-59
2022/08/21 03:02:44;;;;;;;13.80;10.18;;;;;;;17.28;99.35;100348.56;1709253;82;99098;-59
2022/08/21 03:05:11;;;;;;;15.48;10.00;;;;;;;17.26;99.50;100356.81;1712448;82;25717;-59
2022/08/21 03:07:39;;;;;;;16.67;11.12;;;;;;;17.24;99.46;100361.48;1706098;82;99092;-59
2022/08/21 03:10:06;;;;;;;14.05;10.48;;;;;;;17.23;99.65;100376.00;1706759;82;25806;-59
2022/08/21 03:12:32;;;;;;;13.60;10.60;;;;;;;17.23;99.91;100361.59;1713057;82;26664;-59
2022/08/21 03:14:58;;;;;;;15.88;11.63;;;;;;;17.22;99.95;100358.51;1714031;82;99203;-60
2022/08/21 03:17:25;;;;;;;16.50;10.25;;;;;;;17.20;99.95;100359.48;1708829;82;25926;-59
2022/08/21 03:19:51;;;;;;;14.98;10.78;;;;;;;17.20;99.94;100358.13;1714305;82;99292;-59
2022/08/21 03:22:17;;;;;;;12.63;10.15;;;;;;;17.19;100.00;100378.56;1711640;82;26626;-58
2022/08/21 03:24:45;;;;;;;11.28;9.45;;;;;;;17.17;100.00;100375.97;1711100;82;25794;-59
2022/08/21 03:27:16;;;;;;;13.68;10.13;;;;;;;17.15;100.00;100359.46;1710255;82;98977;-59
2022/08/21 03:29:40;;;;;;;15.88;9.18;;;;;;;17.13;100.00;100370.90;1716445;82;26361;-59
2022/08/21 03:32:09;;;;;;;12.03;9.68;;;;;;;17.13;100.00;100377.18;1712773;82;99233;-59
2022/08/21 03:34:37;;;;;;;12.28;10.10;;;;;;;17.11;100.00;100364.73;1706339;82;26520;-59
2022/08/21 03:37:05;;;;;;;16.95;9.40;;;;;;;17.09;100.00;100373.46;1712962;82;25857;-59
2022/08/21 03:39:31;;;;;;;14.30;8.70;;;;;;;17.09;100.00;100382.94;1704062;82;98971;-59
2022/08/21 03:41:57;;;;;;;9.03;7.83;;;;;;;17.08;100.00;100381.21;1709624;82;25775;-58
2022/08/21 03:44:23;;;;;;;9.23;7.85;;;;;;;17.08;100.00;100379.86;1705432;82;99440;-58
2022/08/21 03:46:49;;;;;;;9.10;7.58;;;;;;;17.08;100.00;100380.72;1708900;82;27193;-59
2022/08/21 03:49:15;;;;;;;10.35;7.55;;;;;;;17.07;100.00;100392.53;1706480;82;25857;-59
2022/08/21 03:51:41;;;;;;;9.83;7.78;;;;;;;17.08;100.00;100384.78;1701226;82;99042;-59
2022/08/21 03:54:07;;;;;;;9.23;7.97;;;;;;;17.07;100.00;100388.95;1705451;82;25856;-59
2022/08/21 03:56:33;;;;;;;11.97;7.55;;;;;;;17.08;100.00;100409.16;1716840;82;98977;-58
2022/08/21 03:58:58;;;;;;;18.73;7.92;;;;;;;17.09;100.00;100412.73;1716459;82;25962;-59
2022/08/21 04:01:25;;;;;;;14.30;7.45;;;;;;;17.07;100.00;100406.56;1718517;82;25885;-58
2022/08/21 04:03:50;;;;;;;8.35;6.40;;;;;;;17.04;100.00;100409.00;1707019;82;98873;-58
2022/08/21 04:06:17;;;;;;;7.42;6.45;;;;;;;17.04;100.00;100409.50;1711787;82;25790;-58
2022/08/21 04:08:43;;;;;;;10.05;6.15;;;;;;;17.01;100.00;100427.32;1718373;82;98970;-58
2022/08/21 04:11:12;;;;;;;12.28;6.80;;;;;;;16.92;100.00;100428.86;1722228;82;26077;-58
2022/08/21 04:13:38;;;;;;;8.80;6.25;;;;;;;16.89;100.00;100431.79;1701145;82;99326;-58
2022/08/21 04:16:05;;;;;;;13.25;7.10;;;;;;;16.86;100.00;100434.23;1710245;82;26120;-58
2022/08/21 04:18:31;;;;;;;14.05;6.30;;;;;;;16.86;100.00;100425.25;1718939;82;25837;-59
2022/08/21 04:20:59;;;;;;;12.98;6.20;;;;;;;16.87;100.00;100429.69;1715579;82;99089;-61
2022/08/21 04:23:25;;;;;;;7.83;5.53;;;;;;;16.87;100.00;100429.69;1714842;82;26570;-61
2022/08/21 04:25:55;;;;;;;6.05;5.42;;;;;;;16.89;100.00;100434.50;1713238;82;99101;-60
2022/08/21 04:28:27;;;;;;;15.45;5.65;;;;;;;16.86;100.00;100429.30;1708856;82;26022;-58
2022/08/21 04:30:54;;;;;;;13.58;5.62;;;;;;;16.83;100.00;100427.69;1715163;82;26392;-58
2022/08/21 04:33:22;;;;;;;12.85;5.62;;;;;;;16.83;100.00;100445.77;1712682;82;99094;-58
2022/08/21 04:35:49;;;;;;;8.80;4.95;;;;;;;16.83;100.00;100418.70;1712031;82;25845;-59
2022/08/21 04:38:15;;;;;;;7.92;4.75;;;;;;;16.83;100.00;100418.70;1707774;82;98894;-59
2022/08/21 04:40:41;;;;;;;12.68;4.83;;;;;;;16.84;100.00;100421.78;1708619;82;25763;-59
2022/08/21 04:43:09;;;;;;;8.00;5.35;;;;;;;16.86;100.00;100411.22;1701356;82;25811;-59
2022/08/21 04:45:41;;;;;;;7.28;4.62;;;;;;;16.86;100.00;100405.80;1704607;82;98857;-58
2022/08/21 04:48:10;;;;;;;5.62;4.08;;;;;;;16.88;100.00;100423.30;1707893;82;26172;-59
2022/08/21 04:50:54;;;;;;;5.72;4.97;;;;;;;16.90;100.00;100423.18;1706088;82;98897;-59
2022/08/21 04:53:43;;;;;;;6.30;4.92;;;;;;;16.91;100.00;100424.42;1715487;82;25885;-59
2022/08/21 04:56:24;;;;;;;6.55;4.92;;;;;;;16.93;100.00;100425.17;1710484;82;99188;-58
2022/08/21 04:58:53;;;;;;;7.53;5.10;;;;;;;16.93;100.00;100437.36;1710231;81;28327;-58
2022/08/21 05:01:24;;;;;;;7.85;5.60;;;;;;;16.96;100.00;100443.91;1710178;81;25914;-59
2022/08/21 05:03:55;;;;;;;6.12;5.12;;;;;;;16.97;100.00;100440.70;1713281;82;98610;-60
2022/08/21 05:06:23;;;;;;;64.55;6.90;;;;;;;16.99;100.00;100444.17;1711631;82;25769;-58
2022/08/21 05:08:53;;;;;;;8.35;5.10;;;;;;;16.98;100.00;100444.66;1707971;82;99080;-59
2022/08/21 05:11:19;;;;;;;10.58;5.72;;;;;;;17.02;100.00;100456.12;1717353;82;27408;-58
2022/08/21 05:13:46;;;;;;;13.32;5.80;;;;;;;17.02;100.00;100445.30;1689999;82;99329;-58
2022/08/21 05:16:12;;;;;;;12.00;5.62;;;;;;;17.01;100.00;100447.63;1717213;81;26129;-58
2022/08/21 05:18:38;;;;;;;7.28;5.37;;;;;;;17.01;100.00;100455.27;1713479;82;26318;-58
2022/08/21 05:21:04;;;;;;;9.38;5.85;;;;;;;17.03;100.00;100456.02;1714230;82;98948;-59
2022/08/21 05:23:30;;;;;;;7.00;5.40;;;;;;;17.04;100.00;100463.66;1712631;82;27516;-58
2022/08/21 05:25:57;;;;;;;14.40;5.42;;;;;;;17.06;100.00;100464.41;1702022;82;98920;-59
2022/08/21 05:28:23;;;;;;;6.00;5.25;;;;;;;17.07;100.00;100458.02;1712524;82;25793;-58
2022/08/21 05:30:49;;;;;;;8.58;4.72;;;;;;;17.09;100.00;100473.17;1723231;82;25879;-58
2022/08/21 05:33:15;;;;;;;9.65;5.33;;;;;;;17.10;100.00;100468.13;1712695;82;98804;-59
2022/08/21 05:35:41;;;;;;;10.28;5.30;;;;;;;17.11;100.00;100456.32;1713956;82;27371;-59
2022/08/21 05:38:08;;;;;;;6.00;5.05;;;;;;;17.13;100.00;100450.30;1711978;82;99178;-59
2022/08/21 05:40:34;;;;;;;13.00;5.50;;;;;;;17.15;100.00;100450.19;1713361;82;25838;-58
2022/08/21 05:43:01;;;;;;;12.18;6.28;;;;;;;17.16;100.00;100455.98;1717025;81;26140;-59
2022/08/21 05:45:32;;;;;;;14.93;6.67;;;;;;;17.16;100.00;100446.02;1713278;82;99178;-59
2022/08/21 05:48:07;;;;;;;9.00;6.42;;;;;;;17.18;100.00;100443.19;1713038;82;27498;-60
2022/08/21 05:50:33;;;;;;;15.08;6.12;;;;;;;17.21;100.00;100452.45;1711156;82;99034;-59
2022/08/21 05:52:59;;;;;;;10.03;5.78;;;;;;;17.22;100.00;100451.47;1705954;82;25809;-59
2022/08/21 05:55:25;;;;;;;14.98;7.25;;;;;;;17.24;100.00;100441.88;1713326;81;25664;-58
2022/08/21 05:57:50;;;;;;;12.98;7.45;;;;;;;17.24;100.00;100442.73;1705822;82;98907;-59
2022/08/21 06:00:16;;;;;;;11.53;7.47;;;;;;;17.27;100.00;100443.00;1713213;82;27484;-60
2022/08/21 06:02:42;;;;;;;17.85;6.60;;;;;;;17.27;100.00;100449.77;1703503;82;99145;-59
2022/08/21 06:05:08;;;;;;;16.02;8.28;;;;;;;17.30;100.00;100443.64;1714723;82;25986;-59
2022/08/21 06:07:34;;;;;;;14.80;8.30;;;;;;;17.31;100.00;100444.50;1709557;82;99219;-59
2022/08/21 06:10:01;;;;;;;11.28;8.45;;;;;;;17.30;100.00;100441.42;1715234;82;26656;-59
2022/08/21 06:12:26;;;;;;;10.78;7.55;;;;;;;17.31;100.00;100433.17;1717482;81;27336;-59
2022/08/21 06:14:52;;;;;;;14.80;7.50;;;;;;;17.35;100.00;100453.64;1714700;82;99095;-60
2022/08/21 06:17:19;;;;;;;10.50;7.67;;;;;;;17.36;100.00;100428.28;1706429;82;26437;-60
2022/08/21 06:19:47;;;;;;;12.68;7.37;;;;;;;17.39;100.00;100425.83;1730636;81;99216;-60
2022/08/21 06:22:13;;;;;;;9.05;7.67;;;;;;;17.41;100.00;100430.64;1736084;80;25827;-59
2022/08/21 06:24:39;;;;;;;13.25;7.08;;;;;;;17.43;100.00;100425.98;1745051;80;29646;-59
2022/08/21 06:27:07;;;;;;;11.57;8.05;;;;;;;17.43;100.00;100407.01;1737140;80;99085;-59
2022/08/21 06:29:34;;;;;;;11.85;8.00;;;;;;;17.45;100.00;100422.17;1743580;81;25767;-59
2022/08/21 06:32:01;;;;;;;16.82;8.00;;;;;;;17.43;100.00;100402.45;1741438;81;99185;-59
2022/08/21 06:34:27;;;;;;;23.18;8.85;;;;;;;17.42;100.00;100402.57;1740879;81;25487;-59
2022/08/21 06:36:53;;;;;;;13.18;8.35;;;;;;;17.40;100.00;100416.72;1691889;83;27920;-59
2022/08/21 06:39:19;;;;;;;16.23;7.85;;;;;;;17.36;100.00;100418.80;1687003;83;99102;-58
2022/08/21 06:41:45;;;;;;;9.03;7.55;;;;;;;17.33;100.00;100419.03;1727424;81;25841;-58
2022/08/21 06:44:11;;;;;;;11.70;8.50;;;;;;;17.31;100.00;100422.34;1738678;81;99090;-59
2022/08/21 06:46:37;;;;;;;13.15;8.43;;;;;;;17.28;100.00;100435.25;1732076;81;25800;-59
2022/08/21 06:49:04;;;;;;;16.57;9.43;;;;;;;17.23;100.00;100446.92;1740601;81;27459;-59
2022/08/21 06:51:30;;;;;;;12.95;8.60;;;;;;;17.10;100.00;100451.02;1706717;83;99139;-60
2022/08/21 06:53:56;;;;;;;17.82;7.62;;;;;;;17.02;100.00;100450.72;1741470;80;25293;-59
2022/08/21 06:56:22;;;;;;;16.48;8.28;;;;;;;16.93;100.00;100464.44;1735225;81;99458;-59
2022/08/21 06:58:48;;;;;;;14.40;7.72;;;;;;;16.88;100.00;100465.25;1734442;81;25734;-60
2022/08/21 07:01:15;;;;;;;14.75;7.45;;;;;;;16.84;100.00;100456.48;1729140;81;29606;-59
2022/08/21 07:03:43;;;;;;;15.00;8.10;;;;;;;16.79;100.00;100468.14;1740848;81;99446;-59
2022/08/21 07:06:10;;;;;;;25.85;8.63;;;;;;;16.78;100.00;100475.02;1735714;81;25875;-59
2022/08/21 07:08:38;;;;;;;13.38;8.53;;;;;;;16.76;100.00;100485.08;1741535;81;99101;-59
2022/08/21 07:11:18;;;;;;;20.65;8.68;;;;;;;16.74;100.00;100487.03;1736441;81;26114;-59
2022/08/21 07:13:45;;;;;;;23.27;9.08;;;;;;;16.68;100.00;100484.28;1735857;80;99228;-59
2022/08/21 07:16:11;;;;;;;13.05;8.63;;;;;;;16.67;100.00;100483.90;1747998;80;25773;-59
2022/08/21 07:18:37;;;;;;;16.65;8.88;;;;;;;16.65;100.00;100481.79;1772023;80;25713;-59
2022/08/21 07:21:07;;;;;;;19.17;9.40;;;;;;;16.66;100.00;100479.46;1764146;80;98967;-59
2022/08/21 07:23:37;;;;;;;18.37;8.95;;;;;;;16.66;100.00;100478.59;1766799;80;25762;-59
2022/08/21 07:26:04;;;;;;;22.42;8.75;;;;;;;16.64;100.00;100485.92;1712082;82;99282;-59
2022/08/21 07:28:30;;;;;;;17.65;7.90;;;;;;;16.61;100.00;100483.44;1713660;81;25911;-59
2022/08/21 07:30:59;;;;;;;33.02;9.35;;;;;;;16.61;100.00;100482.95;1705355;82;25810;-58
2022/08/21 07:33:29;;;;;;;17.65;7.90;;;;;;;16.62;100.00;100478.41;1715177;82;99144;-59
2022/08/21 07:35:56;;;;;;;19.60;8.98;;;;;;;16.64;100.00;100473.75;1712911;82;25806;-59
2022/08/21 07:38:23;;;;;;;37.55;9.58;;;;;;;16.67;100.00;100471.72;1713941;82;99015;-60
2022/08/21 07:40:51;;;;;;;16.05;9.10;;;;;;;16.75;100.00;100470.69;1712556;82;25769;-58
2022/08/21 07:43:17;;;;;;;18.40;8.38;;;;;;;16.81;100.00;100470.25;1709779;82;25839;-60
2022/08/21 07:45:44;;;;;;;23.47;8.70;;;;;;;16.83;100.00;100466.94;1710995;82;98817;-60
2022/08/21 07:48:11;;;;;;;14.38;8.65;;;;;;;16.88;100.00;100459.35;1716783;82;25881;-59
2022/08/21 07:50:39;;;;;;;13.98;8.20;;;;;;;16.92;100.00;100461.84;1715046;82;99332;-60
2022/08/21 07:53:04;;;;;;;25.02;8.60;;;;;;;16.96;100.00;100464.21;1705923;82;26057;-60
2022/08/21 07:55:30;;;;;;;13.35;8.40;;;;;;;16.99;100.00;100467.19;1707691;81;99328;-60
2022/08/21 07:57:56;;;;;;;15.38;7.55;;;;;;;17.02;100.00;100466.96;1710707;82;26583;-60
2022/08/21 08:00:26;;;;;;;18.45;9.55;;;;;;;17.01;100.00;100464.73;1713282;82;25952;-60
2022/08/21 08:02:53;;;;;;;18.05;8.43;;;;;;;17.00;100.00;100474.33;1710047;82;99400;-61
2022/08/21 08:05:25;;;;;;;19.70;8.30;;;;;;;16.95;100.00;100476.02;1718565;82;25917;-59
2022/08/21 08:07:51;;;;;;;17.77;8.20;;;;;;;16.93;100.00;100479.33;1711203;82;99610;-61
2022/08/21 08:10:18;;;;;;;26.20;8.28;;;;;;;16.93;100.00;100478.45;1714817;82;25821;-61
2022/08/21 08:12:46;;;;;;;14.35;8.33;;;;;;;16.92;100.00;100480.30;1715238;82;25808;-60
2022/08/21 08:15:16;;;;;;;17.75;8.53;;;;;;;16.92;100.00;100481.66;1714941;82;99405;-60
2022/08/21 08:17:43;;;;;;;15.55;9.13;;;;;;;16.94;100.00;100477.48;1704459;83;25897;-60
2022/08/21 08:20:12;;;;;;;25.48;10.30;;;;;;;16.93;100.00;100482.03;1703089;83;99586;-61
2022/08/21 08:22:40;;;;;;;18.65;9.05;;;;;;;16.92;100.00;100485.72;1715877;83;25806;-60
2022/08/21 08:25:08;;;;;;;26.12;8.78;;;;;;;16.92;100.00;100486.20;1708683;83;26490;-60
2022/08/21 08:27:34;;;;;;;24.15;10.25;;;;;;;16.95;100.00;100496.81;1715176;83;98973;-59
2022/08/21 08:30:01;;;;;;;15.35;9.48;;;;;;;16.94;100.00;100494.59;1715485;83;26565;-60
2022/08/21 08:32:27;;;;;;;13.95;9.60;;;;;;;16.96;100.00;100493.99;1706590;83;99229;-60
2022/08/21 08:34:52;;;;;;;16.82;10.08;;;;;;;16.99;100.00;100503.73;1712293;81;26156;-60
2022/08/21 08:37:20;;;;;;;24.95;10.50;;;;;;;16.97;100.00;100505.20;1701853;81;25803;-60
2022/08/21 08:39:46;;;;;;;22.22;10.90;;;;;;;16.93;100.00;100510.46;1707643;82;99298;-60
2022/08/21 08:42:33;;;;;;;20.65;10.30;;;;;;;16.94;100.00;100507.27;1711389;83;26615;-60
2022/08/21 08:45:10;;;;;;;28.10;10.78;;;;;;;16.93;100.00;100505.05;1692284;82;99359;-59
2022/08/21 08:47:42;;;;;;;28.67;11.30;;;;;;;16.92;100.00;100496.55;1717424;83;26172;-60
2022/08/21 08:50:20;;;;;;;14.83;11.20;;;;;;;16.93;100.00;100499.62;1718233;81;99603;-60
2022/08/21 08:52:51;;;;;;;26.42;11.90;;;;;;;16.92;100.00;100494.33;1746665;81;27405;-61
2022/08/21 08:55:21;;;;;;;20.92;12.35;;;;;;;16.92;100.00;100484.84;1751912;81;25885;-60
2022/08/21 08:57:50;;;;;;;20.88;11.75;;;;;;;16.91;100.00;100485.83;1746704;80;99231;-60
2022/08/21 09:00:20;;;;;;;20.37;11.55;;;;;;;16.89;100.00;100490.00;1675048;83;26716;-60
2022/08/21 09:02:50;;;;;;;33.67;12.80;;;;;;;16.90;100.00;100495.79;1694340;82;99238;-59
2022/08/21 09:05:39;;;;;;;19.20;11.85;;;;;;;16.91;100.00;100498.01;1690190;83;28166;-60
2022/08/21 09:08:22;;;;;;;27.45;11.57;;;;;;;16.93;100.00;100506.40;1697891;82;99448;-59
2022/08/21 09:11:12;;;;;;;18.52;12.07;;;;;;;16.92;100.00;100497.03;1700502;82;26464;-60
2022/08/21 09:14:34;;;;;;;24.27;13.32;;;;;;;16.94;100.00;100493.23;1707581;82;99495;-59
2022/08/21 09:17:38;;;;;;;22.42;12.47;;;;;;;17.00;100.00;100490.09;1689354;82;25801;-60
2022/08/21 09:20:35;;;;;;;21.30;12.03;;;;;;;17.04;100.00;100490.73;1689235;83;99460;-60
2022/08/21 09:23:19;;;;;;;25.32;12.82;;;;;;;17.08;100.00;100499.02;1700002;82;25752;-60
2022/08/21 09:26:08;;;;;;;16.75;11.15;;;;;;;17.07;100.00;100508.98;1681992;82;99506;-59
2022/08/21 09:28:36;;;;;;;16.85;11.78;;;;;;;17.08;100.00;100518.83;1687247;82;26309;-59
2022/08/21 09:31:10;;;;;;;36.13;12.37;;;;;;;17.09;100.00;100514.28;1698185;82;25943;-59
2022/08/21 09:33:36;;;;;;;20.37;12.23;;;;;;;17.08;100.00;100520.19;1687452;82;99271;-60
2022/08/21 09:36:04;;;;;;;25.57;12.25;;;;;;;17.08;100.00;100515.26;1689804;82;25902;-59
2022/08/21 09:38:37;;;;;;;24.98;11.08;;;;;;;17.09;100.00;100516.98;1696933;82;99648;-62
2022/08/21 09:41:08;;;;;;;25.08;13.13;;;;;;;17.11;100.00;100514.55;1691891;82;26227;-59
2022/08/21 09:43:37;;;;;;;25.75;12.03;;;;;;;17.14;100.00;100514.33;1692542;82;99371;-59
2022/08/21 09:46:10;;;;;;;20.05;12.20;;;;;;;17.15;100.00;100508.42;1689622;83;27434;-60
2022/08/21 09:48:45;;;;;;;17.65;11.90;;;;;;;17.15;100.00;100504.36;1681439;83;26066;-59
2022/08/21 09:51:30;;;;;;;27.20;13.13;;;;;;;17.14;100.00;100502.14;1675249;83;99365;-59
2022/08/21 09:54:15;;;;;;;19.67;12.93;;;;;;;17.16;100.00;100512.86;1681999;83;26568;-60
2022/08/21 09:59:54;;;;;;;28.95;12.33;;;;;;;17.20;100.00;100515.72;1677013;83;27484;-59
2022/08/21 10:02:35;;;;;;;25.43;12.82;;;;;;;17.23;100.00;100515.98;1676281;83;99283;-59
2022/08/21 10:05:09;;;;;;;18.70;12.35;;;;;;;17.24;100.00;100513.17;1677646;83;25851;-58
2022/08/21 10:07:38;;;;;;;29.52;11.93;;;;;;;17.25;100.00;100515.39;1676304;83;99430;-60
2022/08/21 10:10:09;;;;;;;29.75;12.98;;;;;;;17.28;100.00;100522.80;1672448;83;25798;-61
2022/08/21 10:13:14;;;;;;;17.87;12.95;;;;;;;17.30;100.00;100526.27;1681149;83;28175;-60
2022/08/21 10:16:00;;;;;;;19.48;12.60;;;;;;;17.33;100.00;100534.66;1696107;82;99184;-59
2022/08/21 10:18:43;;;;;;;19.95;11.35;;;;;;;17.35;100.00;100536.27;1719583;81;25736;-59
2022/08/21 10:21:39;;;;;;;21.20;12.43;;;;;;;17.37;100.00;100530.74;1749869;80;99203;-60
2022/08/21 10:24:32;;;;;;;25.40;12.10;;;;;;;17.39;100.00;100531.50;1736667;81;25715;-58
2022/08/21 10:27:27;;;;;;;30.82;12.43;;;;;;;17.40;100.00;100534.58;1736819;81;99160;-57
2022/08/21 10:30:02;;;;;;;18.15;12.25;;;;;;;17.39;100.00;100524.23;1737688;81;25734;-57
2022/08/21 10:33:14;;;;;;;22.70;11.88;;;;;;;17.41;100.00;100523.63;1674519;82;98485;-60
2022/08/21 10:35:49;;;;;;;23.35;12.28;;;;;;;17.44;100.00;100524.77;1717387;81;25748;-59
2022/08/21 10:39:04;;;;;;;15.93;11.88;;;;;;;17.47;100.00;100520.47;1709993;81;99226;-59
2022/08/21 10:41:51;;;;;;;23.35;10.68;;;;;;;17.51;100.00;100518.40;1692327;83;27575;-60
2022/08/21 10:44:38;;;;;;;13.48;10.28;;;;;;;17.55;100.00;100506.84;1694049;82;99861;-61
2022/08/21 10:47:16;;;;;;;15.13;9.68;;;;;;;17.59;100.00;100510.56;1705243;81;25848;-60
2022/08/21 10:50:14;;;;;;;11.38;10.20;;;;;;;17.62;100.00;100510.34;1696019;81;99200;-60
2022/08/21 10:52:54;;;;;;;19.10;9.48;;;;;;;17.68;100.00;100512.63;1703694;82;25831;-59
2022/08/21 10:55:43;;;;;;;18.62;10.13;;;;;;;17.72;100.00;100507.83;1694375;82;28101;-58
2022/08/21 10:58:16;;;;;;;11.85;9.40;;;;;;;17.77;100.00;100508.35;1696746;82;99196;-59
2022/08/21 11:00:51;;;;;;;13.28;9.23;;;;;;;17.82;100.00;100508.88;1707205;82;26470;-59
2022/08/21 11:03:37;;;;;;;18.75;9.60;;;;;;;17.83;100.00;100511.95;1694508;82;99174;-59
2022/08/21 11:06:17;;;;;;;15.93;10.28;;;;;;;17.90;100.00;100507.80;1692449;82;25859;-58
2022/08/21 11:08:53;;;;;;;20.50;10.08;;;;;;;17.94;100.00;100507.08;1697132;81;99217;-59
2022/08/21 11:11:34;;;;;;;14.80;9.78;;;;;;;18.00;100.00;100497.12;1690878;83;25775;-58
2022/08/21 11:14:11;;;;;;;14.93;11.28;;;;;;;18.03;100.00;100493.68;1685232;82;99412;-58
2022/08/21 11:16:46;;;;;;;17.62;9.18;;;;;;;18.09;100.00;100490.50;1704145;82;25790;-58
2022/08/21 11:19:32;;;;;;;16.62;7.80;;;;;;;17.95;100.00;100460.00;1710017;82;25743;-57
2022/08/21 11:22:21;;;;;;;12.63;8.30;;;;;;;18.07;100.00;100470.77;1709070;81;99162;-58
2022/08/21 11:25:13;;;;;;;10.30;8.65;;;;;;;18.23;100.00;100500.74;1707772;82;25723;-58
2022/08/21 11:27:56;;;;;;;17.92;8.65;;;;;;;18.24;100.00;100495.69;1694971;82;99070;-57